sensor_id;sensor_type;location;lat;lon;timestamp;temperature;humidity
6956;DHT22;50345;51.136;16.886;2024-03-08T00:01:06;2.40;99.90
6956;DHT22;50345;51.136;16.886;2024-03-08T00:03:32;2.30;99.90
6956;DHT22;50345;51.136;16.886;2024-03-08T00:05:58;2.30;99.90
6956;DHT22;50345;51.136;16.886;2024-03-08T00:08:23;2.30;99.90
6956;DHT22;50345;51.136;16.886;2024-03-08T00:10:50;2.20;99.90
6956;DHT22;50345;51.136;16.886;2024-03-08T00:13:15;2.20;99.90
6956;DHT22;50345;51.136;16.886;2024-03-08T00:15:41;2.20;99.90
6956;DHT22;50345;51.136;16.886;2024-03-08T00:18:07;2.20;99.90
6956;DHT22;50345;51.136;16.886;2024-03-08T00:20:32;2.10;99.90
6956;DHT22;50345;51.136;16.886;2024-03-08T00:22:58;2.10;99.90
6956;DHT22;50345;51.136;16.886;2024-03-08T00:25:24;2.10;99.90
6956;DHT22;50345;51.136;16.886;2024-03-08T00:27:50;2.00;99.90
6956;DHT22;50345;51.136;16.886;2024-03-08T00:30:15;2.00;99.90
6956;DHT22;50345;51.136;16.886;2024-03-08T00:32:41;2.00;99.90
6956;DHT22;50345;51.136;16.886;2024-03-08T00:35:07;1.90;99.90
6956;DHT22;50345;51.136;16.886;2024-03-08T00:37:33;1.90;99.90
6956;DHT22;50345;51.136;16.886;2024-03-08T00:39:59;2.00;99.90
6956;DHT22;50345;51.136;16.886;2024-03-08T00:42:25;1.90;99.90
6956;DHT22;50345;51.136;16.886;2024-03-08T00:44:51;1.90;99.90
6956;DHT22;50345;51.136;16.886;2024-03-08T00:47:17;1.80;99.90
6956;DHT22;50345;51.136;16.886;2024-03-08T00:49:42;1.80;99.90
6956;DHT22;50345;51.136;16.886;2024-03-08T00:52:08;1.70;99.90
6956;DHT22;50345;51.136;16.886;2024-03-08T00:54:34;1.70;99.90
6956;DHT22;50345;51.136;16.886;2024-03-08T00:57:03;1.70;99.90
6956;DHT22;50345;51.136;16.886;2024-03-08T00:59:29;1.70;99.90
6956;DHT22;50345;51.136;16.886;2024-03-08T01:01:56;1.60;99.90
6956;DHT22;50345;51.136;16.886;2024-03-08T01:04:22;1.60;99.90
6956;DHT22;50345;51.136;16.886;2024-03-08T01:06:48;1.60;99.90
6956;DHT22;50345;51.136;16.886;2024-03-08T01:09:14;1.60;99.90
6956;DHT22;50345;51.136;16.886;2024-03-08T01:11:39;1.60;99.90
6956;DHT22;50345;51.136;16.886;2024-03-08T01:14:05;1.50;99.90
6956;DHT22;50345;51.136;16.886;2024-03-08T01:16:31;1.50;99.90
6956;DHT22;50345;51.136;16.886;2024-03-08T01:18:58;1.50;99.90
6956;DHT22;50345;51.136;16.886;2024-03-08T01:21:24;1.50;99.90
6956;DHT22;50345;51.136;16.886;2024-03-08T01:23:50;1.40;99.90
6956;DHT22;50345;51.136;16.886;2024-03-08T01:26:15;1.40;99.90
6956;DHT22;50345;51.136;16.886;2024-03-08T01:28:41;1.40;99.90
6956;DHT22;50345;51.136;16.886;2024-03-08T01:31:07;1.40;99.90
6956;DHT22;50345;51.136;16.886;2024-03-08T01:33:33;1.40;99.90
6956;DHT22;50345;51.136;16.886;2024-03-08T01:35:58;1.30;99.90
6956;DHT22;50345;51.136;16.886;2024-03-08T01:38:24;1.30;99.90
6956;DHT22;50345;51.136;16.886;2024-03-08T01:40:50;1.30;99.90
6956;DHT22;50345;51.136;16.886;2024-03-08T01:43:21;1.30;99.90
6956;DHT22;50345;51.136;16.886;2024-03-08T01:45:48;1.30;99.90
6956;DHT22;50345;51.136;16.886;2024-03-08T01:48:14;1.20;99.90
6956;DHT22;50345;51.136;16.886;2024-03-08T01:50:40;1.20;99.90
6956;DHT22;50345;51.136;16.886;2024-03-08T01:53:07;1.20;99.90
6956;DHT22;50345;51.136;16.886;2024-03-08T01:55:35;1.10;99.90
6956;DHT22;50345;51.136;16.886;2024-03-08T01:58:03;1.10;99.90
6956;DHT22;50345;51.136;16.886;2024-03-08T02:00:29;1.10;99.90
6956;DHT22;50345;51.136;16.886;2024-03-08T02:02:55;1.10;99.90
6956;DHT22;50345;51.136;16.886;2024-03-08T02:05:23;1.00;99.90
6956;DHT22;50345;51.136;16.886;2024-03-08T02:07:49;1.00;99.90
6956;DHT22;50345;51.136;16.886;2024-03-08T02:10:14;1.00;99.90
6956;DHT22;50345;51.136;16.886;2024-03-08T02:12:41;0.90;99.90
6956;DHT22;50345;51.136;16.886;2024-03-08T02:15:07;0.90;99.90
6956;DHT22;50345;51.136;16.886;2024-03-08T02:17:33;1.00;99.90
6956;DHT22;50345;51.136;16.886;2024-03-08T02:20:01;1.00;99.90
6956;DHT22;50345;51.136;16.886;2024-03-08T02:22:29;1.00;99.90
6956;DHT22;50345;51.136;16.886;2024-03-08T02:24:55;1.00;99.90
6956;DHT22;50345;51.136;16.886;2024-03-08T02:27:24;1.00;99.90
6956;DHT22;50345;51.136;16.886;2024-03-08T02:29:55;1.00;99.90
6956;DHT22;50345;51.136;16.886;2024-03-08T02:32:22;0.90;99.90
6956;DHT22;50345;51.136;16.886;2024-03-08T02:34:49;0.90;99.90
6956;DHT22;50345;51.136;16.886;2024-03-08T02:37:15;0.90;99.90
6956;DHT22;50345;51.136;16.886;2024-03-08T02:39:41;0.90;99.90
6956;DHT22;50345;51.136;16.886;2024-03-08T02:42:07;0.80;99.90
6956;DHT22;50345;51.136;16.886;2024-03-08T02:44:32;0.80;99.90
6956;DHT22;50345;51.136;16.886;2024-03-08T02:46:59;0.80;99.90
6956;DHT22;50345;51.136;16.886;2024-03-08T02:49:25;0.70;99.90
6956;DHT22;50345;51.136;16.886;2024-03-08T02:51:52;0.70;99.90
6956;DHT22;50345;51.136;16.886;2024-03-08T02:54:18;0.70;99.90
6956;DHT22;50345;51.136;16.886;2024-03-08T02:56:44;0.70;99.90
6956;DHT22;50345;51.136;16.886;2024-03-08T02:59:12;0.70;99.90
6956;DHT22;50345;51.136;16.886;2024-03-08T03:01:38;0.70;99.90
6956;DHT22;50345;51.136;16.886;2024-03-08T03:04:04;0.60;99.90
6956;DHT22;50345;51.136;16.886;2024-03-08T03:06:30;0.60;99.90
6956;DHT22;50345;51.136;16.886;2024-03-08T03:08:56;0.60;99.90
6956;DHT22;50345;51.136;16.886;2024-03-08T03:11:23;0.60;99.90
6956;DHT22;50345;51.136;16.886;2024-03-08T03:13:48;0.60;99.90
6956;DHT22;50345;51.136;16.886;2024-03-08T03:16:18;0.60;99.90
6956;DHT22;50345;51.136;16.886;2024-03-08T03:18:45;0.50;99.90
6956;DHT22;50345;51.136;16.886;2024-03-08T03:21:11;0.50;99.90
6956;DHT22;50345;51.136;16.886;2024-03-08T03:23:38;0.50;99.90
6956;DHT22;50345;51.136;16.886;2024-03-08T03:26:05;0.40;99.90
6956;DHT22;50345;51.136;16.886;2024-03-08T03:28:32;0.40;99.90
6956;DHT22;50345;51.136;16.886;2024-03-08T03:30:58;0.40;99.90
6956;DHT22;50345;51.136;16.886;2024-03-08T03:33:24;0.40;99.90
6956;DHT22;50345;51.136;16.886;2024-03-08T03:35:50;0.30;99.90
6956;DHT22;50345;51.136;16.886;2024-03-08T03:38:17;0.30;99.90
6956;DHT22;50345;51.136;16.886;2024-03-08T03:40:43;0.30;99.90
6956;DHT22;50345;51.136;16.886;2024-03-08T03:43:10;0.30;99.90
6956;DHT22;50345;51.136;16.886;2024-03-08T03:45:36;0.30;99.90
6956;DHT22;50345;51.136;16.886;2024-03-08T03:48:06;0.30;99.90
6956;DHT22;50345;51.136;16.886;2024-03-08T03:50:34;0.30;99.90
6956;DHT22;50345;51.136;16.886;2024-03-08T03:53:00;0.30;99.90
6956;DHT22;50345;51.136;16.886;2024-03-08T03:55:25;0.30;99.90
6956;DHT22;50345;51.136;16.886;2024-03-08T03:57:52;0.30;99.90
6956;DHT22;50345;51.136;16.886;2024-03-08T04:00:18;0.20;99.90
6956;DHT22;50345;51.136;16.886;2024-03-08T04:02:44;0.20;99.90
6956;DHT22;50345;51.136;16.886;2024-03-08T04:05:10;0.20;99.90
6956;DHT22;50345;51.136;16.886;2024-03-08T04:07:36;0.20;99.90
6956;DHT22;50345;51.136;16.886;2024-03-08T04:10:03;0.10;99.90
6956;DHT22;50345;51.136;16.886;2024-03-08T04:12:29;0.10;99.90
6956;DHT22;50345;51.136;16.886;2024-03-08T04:14:55;0.10;99.90
6956;DHT22;50345;51.136;16.886;2024-03-08T04:17:22;0.10;99.90
6956;DHT22;50345;51.136;16.886;2024-03-08T04:19:47;0.10;99.90
6956;DHT22;50345;51.136;16.886;2024-03-08T04:22:15;0.10;99.90
6956;DHT22;50345;51.136;16.886;2024-03-08T04:24:43;0.10;99.90
6956;DHT22;50345;51.136;16.886;2024-03-08T04:27:09;0.10;99.90
6956;DHT22;50345;51.136;16.886;2024-03-08T04:29:34;0.00;99.90
6956;DHT22;50345;51.136;16.886;2024-03-08T04:32:01;0.00;99.90
6956;DHT22;50345;51.136;16.886;2024-03-08T04:34:29;0.00;99.90
6956;DHT22;50345;51.136;16.886;2024-03-08T04:36:56;0.00;99.90
6956;DHT22;50345;51.136;16.886;2024-03-08T04:39:22;0.00;99.90
6956;DHT22;50345;51.136;16.886;2024-03-08T04:41:49;0.00;99.90
6956;DHT22;50345;51.136;16.886;2024-03-08T04:44:14;0.00;99.90
6956;DHT22;50345;51.136;16.886;2024-03-08T04:46:40;0.00;99.90
6956;DHT22;50345;51.136;16.886;2024-03-08T04:49:06;0.00;99.90
6956;DHT22;50345;51.136;16.886;2024-03-08T04:51:32;0.00;99.90
6956;DHT22;50345;51.136;16.886;2024-03-08T04:53:59;-0.10;99.90
6956;DHT22;50345;51.136;16.886;2024-03-08T04:56:25;-0.10;99.90
6956;DHT22;50345;51.136;16.886;2024-03-08T04:58:51;-0.10;99.90
6956;DHT22;50345;51.136;16.886;2024-03-08T05:01:16;-0.10;99.90
6956;DHT22;50345;51.136;16.886;2024-03-08T05:03:42;-0.10;99.90
6956;DHT22;50345;51.136;16.886;2024-03-08T05:06:08;-0.10;99.90
6956;DHT22;50345;51.136;16.886;2024-03-08T05:08:34;-0.20;99.90
6956;DHT22;50345;51.136;16.886;2024-03-08T05:11:00;-0.20;99.90
6956;DHT22;50345;51.136;16.886;2024-03-08T05:13:30;-0.20;99.90
6956;DHT22;50345;51.136;16.886;2024-03-08T05:15:56;-0.20;99.90
6956;DHT22;50345;51.136;16.886;2024-03-08T05:18:24;-0.20;99.90
6956;DHT22;50345;51.136;16.886;2024-03-08T05:20:49;-0.30;99.90
6956;DHT22;50345;51.136;16.886;2024-03-08T05:23:16;-0.30;99.90
6956;DHT22;50345;51.136;16.886;2024-03-08T05:25:42;-0.30;99.90
6956;DHT22;50345;51.136;16.886;2024-03-08T05:28:07;-0.30;99.90
6956;DHT22;50345;51.136;16.886;2024-03-08T05:30:34;-0.30;99.90
6956;DHT22;50345;51.136;16.886;2024-03-08T05:33:01;-0.30;99.90
6956;DHT22;50345;51.136;16.886;2024-03-08T05:35:27;-0.30;99.90
6956;DHT22;50345;51.136;16.886;2024-03-08T05:37:52;-0.30;99.90
6956;DHT22;50345;51.136;16.886;2024-03-08T05:40:18;-0.30;99.90
6956;DHT22;50345;51.136;16.886;2024-03-08T05:42:44;-0.30;99.90
6956;DHT22;50345;51.136;16.886;2024-03-08T05:45:10;-0.30;99.90
6956;DHT22;50345;51.136;16.886;2024-03-08T05:47:36;-0.30;99.90
6956;DHT22;50345;51.136;16.886;2024-03-08T05:50:02;-0.20;99.90
6956;DHT22;50345;51.136;16.886;2024-03-08T05:52:27;-0.20;99.90
6956;DHT22;50345;51.136;16.886;2024-03-08T05:54:53;-0.20;99.90
6956;DHT22;50345;51.136;16.886;2024-03-08T05:57:18;-0.20;99.90
6956;DHT22;50345;51.136;16.886;2024-03-08T05:59:44;-0.10;99.90
6956;DHT22;50345;51.136;16.886;2024-03-08T06:02:10;-0.10;99.90
6956;DHT22;50345;51.136;16.886;2024-03-08T06:04:35;-0.10;99.90
6956;DHT22;50345;51.136;16.886;2024-03-08T06:07:01;-0.10;99.90
6956;DHT22;50345;51.136;16.886;2024-03-08T06:09:28;0.00;99.90
6956;DHT22;50345;51.136;16.886;2024-03-08T06:11:54;0.10;99.90
6956;DHT22;50345;51.136;16.886;2024-03-08T06:14:20;0.10;99.90
6956;DHT22;50345;51.136;16.886;2024-03-08T06:16:46;0.20;99.90
6956;DHT22;50345;51.136;16.886;2024-03-08T06:19:12;0.20;99.90
6956;DHT22;50345;51.136;16.886;2024-03-08T06:21:38;0.30;99.90
6956;DHT22;50345;51.136;16.886;2024-03-08T06:24:04;0.30;99.90
6956;DHT22;50345;51.136;16.886;2024-03-08T06:26:30;0.40;99.90
6956;DHT22;50345;51.136;16.886;2024-03-08T06:28:55;0.50;99.90
6956;DHT22;50345;51.136;16.886;2024-03-08T06:31:21;0.50;99.90
6956;DHT22;50345;51.136;16.886;2024-03-08T06:33:47;0.70;99.90
6956;DHT22;50345;51.136;16.886;2024-03-08T06:36:16;0.70;99.90
6956;DHT22;50345;51.136;16.886;2024-03-08T06:38:45;0.80;99.90
6956;DHT22;50345;51.136;16.886;2024-03-08T06:41:11;0.90;99.90
6956;DHT22;50345;51.136;16.886;2024-03-08T06:43:44;1.00;99.90
6956;DHT22;50345;51.136;16.886;2024-03-08T06:46:10;1.10;99.90
6956;DHT22;50345;51.136;16.886;2024-03-08T06:48:38;1.20;99.90
6956;DHT22;50345;51.136;16.886;2024-03-08T06:51:04;1.20;99.90
6956;DHT22;50345;51.136;16.886;2024-03-08T06:53:30;1.30;99.90
6956;DHT22;50345;51.136;16.886;2024-03-08T06:55:57;1.40;99.90
6956;DHT22;50345;51.136;16.886;2024-03-08T06:58:23;1.40;99.90
6956;DHT22;50345;51.136;16.886;2024-03-08T07:00:48;1.50;99.90
6956;DHT22;50345;51.136;16.886;2024-03-08T07:03:17;1.60;99.90
6956;DHT22;50345;51.136;16.886;2024-03-08T07:05:43;1.60;99.90
6956;DHT22;50345;51.136;16.886;2024-03-08T07:08:09;1.70;99.90
6956;DHT22;50345;51.136;16.886;2024-03-08T07:10:35;1.70;99.90
6956;DHT22;50345;51.136;16.886;2024-03-08T07:13:02;1.70;99.90
6956;DHT22;50345;51.136;16.886;2024-03-08T07:15:28;1.80;99.90
6956;DHT22;50345;51.136;16.886;2024-03-08T07:17:54;1.80;99.90
6956;DHT22;50345;51.136;16.886;2024-03-08T07:20:20;1.90;99.90
6956;DHT22;50345;51.136;16.886;2024-03-08T07:22:46;2.00;99.90
6956;DHT22;50345;51.136;16.886;2024-03-08T07:25:18;2.10;99.90
6956;DHT22;50345;51.136;16.886;2024-03-08T07:27:48;2.30;99.90
6956;DHT22;50345;51.136;16.886;2024-03-08T07:30:14;2.30;99.90
6956;DHT22;50345;51.136;16.886;2024-03-08T07:32:59;2.50;99.90
6956;DHT22;50345;51.136;16.886;2024-03-08T07:35:28;2.60;99.90
6956;DHT22;50345;51.136;16.886;2024-03-08T07:37:54;2.70;99.90
6956;DHT22;50345;51.136;16.886;2024-03-08T07:40:25;2.80;99.90
6956;DHT22;50345;51.136;16.886;2024-03-08T07:42:51;2.90;99.90
6956;DHT22;50345;51.136;16.886;2024-03-08T07:45:16;3.00;99.90
6956;DHT22;50345;51.136;16.886;2024-03-08T07:47:43;3.10;99.90
6956;DHT22;50345;51.136;16.886;2024-03-08T07:50:08;3.30;99.90
6956;DHT22;50345;51.136;16.886;2024-03-08T07:52:35;3.40;99.90
6956;DHT22;50345;51.136;16.886;2024-03-08T07:55:02;3.50;99.90
6956;DHT22;50345;51.136;16.886;2024-03-08T07:57:29;3.50;99.90
6956;DHT22;50345;51.136;16.886;2024-03-08T07:59:55;3.50;99.90
6956;DHT22;50345;51.136;16.886;2024-03-08T08:02:21;3.60;99.90
6956;DHT22;50345;51.136;16.886;2024-03-08T08:04:46;3.70;99.90
6956;DHT22;50345;51.136;16.886;2024-03-08T08:07:12;3.90;99.90
6956;DHT22;50345;51.136;16.886;2024-03-08T08:09:37;4.00;99.90
6956;DHT22;50345;51.136;16.886;2024-03-08T08:12:03;4.10;99.90
6956;DHT22;50345;51.136;16.886;2024-03-08T08:14:30;4.20;99.90
6956;DHT22;50345;51.136;16.886;2024-03-08T08:16:56;4.40;99.90
6956;DHT22;50345;51.136;16.886;2024-03-08T08:19:23;4.50;99.90
6956;DHT22;50345;51.136;16.886;2024-03-08T08:21:48;4.60;99.90
6956;DHT22;50345;51.136;16.886;2024-03-08T08:24:14;4.80;99.90
6956;DHT22;50345;51.136;16.886;2024-03-08T08:26:40;4.90;99.90
6956;DHT22;50345;51.136;16.886;2024-03-08T08:29:07;5.10;99.90
6956;DHT22;50345;51.136;16.886;2024-03-08T08:31:32;5.20;99.90
6956;DHT22;50345;51.136;16.886;2024-03-08T08:33:58;5.30;99.90
6956;DHT22;50345;51.136;16.886;2024-03-08T08:36:25;5.50;99.90
6956;DHT22;50345;51.136;16.886;2024-03-08T08:38:50;5.70;99.90
6956;DHT22;50345;51.136;16.886;2024-03-08T08:41:19;5.80;99.90
6956;DHT22;50345;51.136;16.886;2024-03-08T08:43:45;6.00;99.90
6956;DHT22;50345;51.136;16.886;2024-03-08T08:46:10;6.10;99.90
6956;DHT22;50345;51.136;16.886;2024-03-08T08:48:39;6.30;99.90
6956;DHT22;50345;51.136;16.886;2024-03-08T08:51:14;6.50;99.90
6956;DHT22;50345;51.136;16.886;2024-03-08T08:53:41;6.80;99.90
6956;DHT22;50345;51.136;16.886;2024-03-08T08:56:08;7.00;99.90
6956;DHT22;50345;51.136;16.886;2024-03-08T08:58:34;7.20;99.90
6956;DHT22;50345;51.136;16.886;2024-03-08T09:01:00;7.40;99.90
6956;DHT22;50345;51.136;16.886;2024-03-08T09:03:27;7.50;99.90
6956;DHT22;50345;51.136;16.886;2024-03-08T09:05:53;7.70;99.90
6956;DHT22;50345;51.136;16.886;2024-03-08T09:08:19;7.80;99.90
6956;DHT22;50345;51.136;16.886;2024-03-08T09:10:45;7.90;99.90
6956;DHT22;50345;51.136;16.886;2024-03-08T09:13:12;7.70;99.90
6956;DHT22;50345;51.136;16.886;2024-03-08T09:15:38;7.80;99.90
6956;DHT22;50345;51.136;16.886;2024-03-08T09:18:06;8.10;99.90
6956;DHT22;50345;51.136;16.886;2024-03-08T09:20:31;8.40;99.10
6956;DHT22;50345;51.136;16.886;2024-03-08T09:22:57;8.80;97.40
6956;DHT22;50345;51.136;16.886;2024-03-08T09:25:23;9.20;95.40
6956;DHT22;50345;51.136;16.886;2024-03-08T09:27:48;9.70;92.90
6956;DHT22;50345;51.136;16.886;2024-03-08T09:30:15;9.90;90.10
6956;DHT22;50345;51.136;16.886;2024-03-08T09:32:41;10.10;86.20
6956;DHT22;50345;51.136;16.886;2024-03-08T09:35:09;10.20;84.40
6956;DHT22;50345;51.136;16.886;2024-03-08T09:37:35;10.30;83.50
6956;DHT22;50345;51.136;16.886;2024-03-08T09:40:00;10.50;81.20
6956;DHT22;50345;51.136;16.886;2024-03-08T09:42:30;11.00;79.40
6956;DHT22;50345;51.136;16.886;2024-03-08T09:44:57;11.40;77.30
6956;DHT22;50345;51.136;16.886;2024-03-08T09:47:25;11.90;73.80
6956;DHT22;50345;51.136;16.886;2024-03-08T09:49:52;12.10;70.40
6956;DHT22;50345;51.136;16.886;2024-03-08T09:52:18;12.40;68.30
6956;DHT22;50345;51.136;16.886;2024-03-08T09:54:44;12.60;65.60
6956;DHT22;50345;51.136;16.886;2024-03-08T09:57:10;12.70;63.60
6956;DHT22;50345;51.136;16.886;2024-03-08T09:59:36;13.00;63.30
6956;DHT22;50345;51.136;16.886;2024-03-08T10:02:01;13.40;63.20
6956;DHT22;50345;51.136;16.886;2024-03-08T10:04:29;13.90;60.30
6956;DHT22;50345;51.136;16.886;2024-03-08T10:06:58;14.30;58.50
6956;DHT22;50345;51.136;16.886;2024-03-08T10:09:25;14.30;57.20
6956;DHT22;50345;51.136;16.886;2024-03-08T10:12:01;14.20;57.50
6956;DHT22;50345;51.136;16.886;2024-03-08T10:14:28;14.10;57.20
6956;DHT22;50345;51.136;16.886;2024-03-08T10:16:54;14.10;56.10
6956;DHT22;50345;51.136;16.886;2024-03-08T10:19:20;14.10;56.20
6956;DHT22;50345;51.136;16.886;2024-03-08T10:21:51;14.50;56.20
6956;DHT22;50345;51.136;16.886;2024-03-08T10:24:19;14.70;54.30
6956;DHT22;50345;51.136;16.886;2024-03-08T10:26:44;14.80;54.30
6956;DHT22;50345;51.136;16.886;2024-03-08T10:29:10;15.00;54.00
6956;DHT22;50345;51.136;16.886;2024-03-08T10:31:43;15.20;53.30
6956;DHT22;50345;51.136;16.886;2024-03-08T10:34:09;15.40;52.30
6956;DHT22;50345;51.136;16.886;2024-03-08T10:36:36;15.50;51.50
6956;DHT22;50345;51.136;16.886;2024-03-08T10:39:06;15.90;51.00
6956;DHT22;50345;51.136;16.886;2024-03-08T10:41:37;16.00;49.70
6956;DHT22;50345;51.136;16.886;2024-03-08T10:49:31;15.70;49.00
6956;DHT22;50345;51.136;16.886;2024-03-08T10:52:03;15.50;48.80
6956;DHT22;50345;51.136;16.886;2024-03-08T10:54:31;15.60;49.60
6956;DHT22;50345;51.136;16.886;2024-03-08T10:56:57;16.00;49.50
6956;DHT22;50345;51.136;16.886;2024-03-08T10:59:25;16.40;48.60
6956;DHT22;50345;51.136;16.886;2024-03-08T11:01:52;16.50;47.20
6956;DHT22;50345;51.136;16.886;2024-03-08T11:04:18;16.60;47.40
6956;DHT22;50345;51.136;16.886;2024-03-08T11:06:48;16.70;47.20
6956;DHT22;50345;51.136;16.886;2024-03-08T11:09:32;16.70;46.50
6956;DHT22;50345;51.136;16.886;2024-03-08T11:14:57;16.70;45.30
6956;DHT22;50345;51.136;16.886;2024-03-08T11:20:00;16.60;46.00
6956;DHT22;50345;51.136;16.886;2024-03-08T11:22:32;16.40;45.70
6956;DHT22;50345;51.136;16.886;2024-03-08T11:25:02;16.20;46.00
6956;DHT22;50345;51.136;16.886;2024-03-08T11:27:32;16.10;45.70
6956;DHT22;50345;51.136;16.886;2024-03-08T11:30:03;16.20;45.90
6956;DHT22;50345;51.136;16.886;2024-03-08T11:32:44;16.60;45.00
6956;DHT22;50345;51.136;16.886;2024-03-08T11:35:21;17.00;43.90
6956;DHT22;50345;51.136;16.886;2024-03-08T11:37:48;17.10;43.50
6956;DHT22;50345;51.136;16.886;2024-03-08T11:40:14;17.20;43.30
6956;DHT22;50345;51.136;16.886;2024-03-08T11:42:45;17.40;43.10
6956;DHT22;50345;51.136;16.886;2024-03-08T11:45:18;17.40;42.40
6956;DHT22;50345;51.136;16.886;2024-03-08T11:47:46;17.40;41.00
6956;DHT22;50345;51.136;16.886;2024-03-08T11:50:13;17.30;41.60
6956;DHT22;50345;51.136;16.886;2024-03-08T11:52:39;17.30;41.40
6956;DHT22;50345;51.136;16.886;2024-03-08T11:55:06;17.10;41.50
6956;DHT22;50345;51.136;16.886;2024-03-08T11:57:32;17.20;41.70
6956;DHT22;50345;51.136;16.886;2024-03-08T11:59:58;17.30;41.90
6956;DHT22;50345;51.136;16.886;2024-03-08T12:02:31;17.20;40.90
6956;DHT22;50345;51.136;16.886;2024-03-08T12:04:58;16.90;40.90
6956;DHT22;50345;51.136;16.886;2024-03-08T12:07:29;16.90;41.70
6956;DHT22;50345;51.136;16.886;2024-03-08T12:10:20;16.80;41.10
6956;DHT22;50345;51.136;16.886;2024-03-08T12:12:54;16.80;41.80
6956;DHT22;50345;51.136;16.886;2024-03-08T12:15:22;16.80;40.90
6956;DHT22;50345;51.136;16.886;2024-03-08T12:17:50;16.70;40.90
6956;DHT22;50345;51.136;16.886;2024-03-08T12:20:24;16.60;40.30
6956;DHT22;50345;51.136;16.886;2024-03-08T12:22:57;16.50;41.00
6956;DHT22;50345;51.136;16.886;2024-03-08T12:25:26;16.50;40.90
6956;DHT22;50345;51.136;16.886;2024-03-08T12:27:52;16.70;40.40
6956;DHT22;50345;51.136;16.886;2024-03-08T12:30:22;16.30;40.50
6956;DHT22;50345;51.136;16.886;2024-03-08T12:32:52;16.40;40.20
6956;DHT22;50345;51.136;16.886;2024-03-08T12:35:22;16.40;40.00
6956;DHT22;50345;51.136;16.886;2024-03-08T12:37:58;16.50;40.70
6956;DHT22;50345;51.136;16.886;2024-03-08T12:40:29;16.70;40.70
6956;DHT22;50345;51.136;16.886;2024-03-08T12:42:55;16.90;40.30
6956;DHT22;50345;51.136;16.886;2024-03-08T12:45:22;16.80;40.10
6956;DHT22;50345;51.136;16.886;2024-03-08T12:47:50;16.70;40.50
6956;DHT22;50345;51.136;16.886;2024-03-08T12:50:15;16.70;41.40
6956;DHT22;50345;51.136;16.886;2024-03-08T12:52:43;16.90;40.50
6956;DHT22;50345;51.136;16.886;2024-03-08T12:55:08;17.00;40.30
6956;DHT22;50345;51.136;16.886;2024-03-08T12:57:35;17.40;41.10
6956;DHT22;50345;51.136;16.886;2024-03-08T13:00:03;17.90;41.10
6956;DHT22;50345;51.136;16.886;2024-03-08T13:02:29;18.30;40.50
6956;DHT22;50345;51.136;16.886;2024-03-08T13:04:57;18.40;38.60
6956;DHT22;50345;51.136;16.886;2024-03-08T13:07:24;18.30;37.90
6956;DHT22;50345;51.136;16.886;2024-03-08T13:09:54;18.50;38.40
6956;DHT22;50345;51.136;16.886;2024-03-08T13:12:23;18.90;38.70
6956;DHT22;50345;51.136;16.886;2024-03-08T13:14:49;19.30;37.60
6956;DHT22;50345;51.136;16.886;2024-03-08T13:17:15;19.60;37.10
6956;DHT22;50345;51.136;16.886;2024-03-08T13:19:41;19.70;36.50
6956;DHT22;50345;51.136;16.886;2024-03-08T13:22:08;19.60;36.00
6956;DHT22;50345;51.136;16.886;2024-03-08T13:24:41;19.50;36.10
6956;DHT22;50345;51.136;16.886;2024-03-08T13:27:07;19.30;36.50
6956;DHT22;50345;51.136;16.886;2024-03-08T13:29:48;19.30;37.30
6956;DHT22;50345;51.136;16.886;2024-03-08T13:32:15;19.60;36.90
6956;DHT22;50345;51.136;16.886;2024-03-08T13:34:44;19.80;36.80
6956;DHT22;50345;51.136;16.886;2024-03-08T13:37:19;20.00;36.70
6956;DHT22;50345;51.136;16.886;2024-03-08T13:39:45;20.50;36.00
6956;DHT22;50345;51.136;16.886;2024-03-08T13:42:11;20.90;35.50
6956;DHT22;50345;51.136;16.886;2024-03-08T13:44:39;21.10;34.80
6956;DHT22;50345;51.136;16.886;2024-03-08T13:47:05;21.00;33.80
6956;DHT22;50345;51.136;16.886;2024-03-08T13:49:32;20.80;34.10
6956;DHT22;50345;51.136;16.886;2024-03-08T13:51:58;20.70;34.20
6956;DHT22;50345;51.136;16.886;2024-03-08T13:54:26;20.70;34.50
6956;DHT22;50345;51.136;16.886;2024-03-08T13:56:53;21.00;34.00
6956;DHT22;50345;51.136;16.886;2024-03-08T13:59:20;21.10;34.30
6956;DHT22;50345;51.136;16.886;2024-03-08T14:01:48;21.20;34.60
6956;DHT22;50345;51.136;16.886;2024-03-08T14:04:14;21.80;34.40
6956;DHT22;50345;51.136;16.886;2024-03-08T14:06:42;22.30;33.60
6956;DHT22;50345;51.136;16.886;2024-03-08T14:09:13;22.80;33.30
6956;DHT22;50345;51.136;16.886;2024-03-08T14:11:43;22.90;31.70
6956;DHT22;50345;51.136;16.886;2024-03-08T14:14:10;22.60;31.50
6956;DHT22;50345;51.136;16.886;2024-03-08T14:16:38;22.30;32.00
6956;DHT22;50345;51.136;16.886;2024-03-08T14:19:04;22.10;32.10
6956;DHT22;50345;51.136;16.886;2024-03-08T14:21:31;21.90;32.10
6956;DHT22;50345;51.136;16.886;2024-03-08T14:23:57;21.90;32.10
6956;DHT22;50345;51.136;16.886;2024-03-08T14:26:22;21.90;32.30
6956;DHT22;50345;51.136;16.886;2024-03-08T14:28:48;22.00;32.30
6956;DHT22;50345;51.136;16.886;2024-03-08T14:31:17;22.10;32.30
6956;DHT22;50345;51.136;16.886;2024-03-08T14:33:44;22.10;32.00
6956;DHT22;50345;51.136;16.886;2024-03-08T14:36:14;22.50;31.80
6956;DHT22;50345;51.136;16.886;2024-03-08T14:38:42;22.60;31.20
6956;DHT22;50345;51.136;16.886;2024-03-08T14:41:08;22.90;31.20
6956;DHT22;50345;51.136;16.886;2024-03-08T14:43:34;23.30;30.90
6956;DHT22;50345;51.136;16.886;2024-03-08T14:45:59;23.40;30.70
6956;DHT22;50345;51.136;16.886;2024-03-08T14:48:25;23.40;31.30
6956;DHT22;50345;51.136;16.886;2024-03-08T14:50:51;23.90;30.60
6956;DHT22;50345;51.136;16.886;2024-03-08T14:53:17;23.90;30.10
6956;DHT22;50345;51.136;16.886;2024-03-08T14:55:43;23.80;30.00
6956;DHT22;50345;51.136;16.886;2024-03-08T14:58:12;23.50;30.50
6956;DHT22;50345;51.136;16.886;2024-03-08T15:00:38;23.70;30.40
6956;DHT22;50345;51.136;16.886;2024-03-08T15:03:05;23.70;30.30
6956;DHT22;50345;51.136;16.886;2024-03-08T15:05:33;23.50;30.10
6956;DHT22;50345;51.136;16.886;2024-03-08T15:08:01;23.10;30.40
6956;DHT22;50345;51.136;16.886;2024-03-08T15:10:28;23.30;30.80
6956;DHT22;50345;51.136;16.886;2024-03-08T15:12:56;23.40;31.20
6956;DHT22;50345;51.136;16.886;2024-03-08T15:15:23;23.60;30.60
6956;DHT22;50345;51.136;16.886;2024-03-08T15:17:50;23.40;30.30
6956;DHT22;50345;51.136;16.886;2024-03-08T15:20:17;22.90;30.30
6956;DHT22;50345;51.136;16.886;2024-03-08T15:22:50;22.40;30.60
6956;DHT22;50345;51.136;16.886;2024-03-08T15:25:16;22.30;31.40
6956;DHT22;50345;51.136;16.886;2024-03-08T15:27:54;22.40;31.50
6956;DHT22;50345;51.136;16.886;2024-03-08T15:30:22;22.30;31.40
6956;DHT22;50345;51.136;16.886;2024-03-08T15:32:52;22.30;31.30
6956;DHT22;50345;51.136;16.886;2024-03-08T15:35:23;22.60;31.60
6956;DHT22;50345;51.136;16.886;2024-03-08T15:37:48;22.50;31.20
6956;DHT22;50345;51.136;16.886;2024-03-08T15:40:14;22.30;31.40
6956;DHT22;50345;51.136;16.886;2024-03-08T15:42:47;21.40;31.70
6956;DHT22;50345;51.136;16.886;2024-03-08T15:45:14;21.00;32.90
6956;DHT22;50345;51.136;16.886;2024-03-08T15:47:40;20.80;33.60
6956;DHT22;50345;51.136;16.886;2024-03-08T15:50:05;20.80;34.00